Zova, Israel
Current Conditions -  °F | °C
As of 11:50 AM on Wednesday 26 Nov 2014 (Local Time) from LLBG Reporting Station
Broken Clouds Broken Clouds  
Wind Chill: 55°   Ceiling: 3200
Heat Index: 55°   Visibility: 6mi
Dew Point: 54°   Wind: 13mph
Humidity: 94%   Direction: 190°S
Pressure: 29.91"   Gusts: NA
Location:  31.78°N, 35.12°E
Report Text: LLBG 260850Z 19011KT 9999 BKN032 13/12 Q1013 RERA TEMPO20015G25KT 5000 TSRA FEW020CB BKN025 RMK OVC070 REP AT 0800Z CLD3000FT
Loading
Personal Weather Stations






























Interactive Weather Map New forecast layout! Learn more

10-Day Weather Forecast

Advertisements
Track Severe Weather on mobile